This is the latest recevied weather packets stored in our database for station/object EA1GGY-1. If no packets are shown the sender has not sent any weather packets the latest 10 day(s).
| Time | Temp. | Humidity | Pressure | Rain* | Wind** | Luminosity | Snow |
|---|---|---|---|---|---|---|---|
| 1777697306 | 11.67° C | 71% | 1011.5 hPa | - | - | - | - |
| 1777696705 | 12.22° C | 69% | 1011.5 hPa | - | - | - | - |
| 1777696104 | 12.78° C | 70% | 1011.7 hPa | - | - | - | - |
| 1777695504 | 12.22° C | 71% | 1011.6 hPa | - | - | - | - |
| 1777694902 | 12.22° C | 72% | 1011.7 hPa | - | - | - | - |
| 1777694302 | 11.11° C | 75% | 1011.8 hPa | - | - | - | - |
| 1777693702 | 11.67° C | 72% | 1011.7 hPa | - | - | - | - |
| 1777693100 | 11.67° C | 72% | 1011.8 hPa | - | - | - | - |
| 1777692499 | 11.11° C | 71% | 1011.7 hPa | - | - | - | - |
| 1777691898 | 11.67° C | 72% | 1011.7 hPa | - | - | - | - |
| 1777691297 | 12.22° C | 69% | 1011.7 hPa | - | - | - | - |
| 1777690698 | 11.67° C | 72% | 1011.7 hPa | - | - | - | - |
| 1777690095 | 11.67° C | 72% | 1012 hPa | - | - | - | - |
| 1777689495 | 11.11° C | 73% | 1012.1 hPa | - | - | - | - |
| 1777688894 | 11.67° C | 71% | 1012.1 hPa | - | - | - | - |
| 1777688294 | 11.67° C | 73% | 1012.1 hPa | - | - | - | - |
| 1777687692 | 11.67° C | 73% | 1012.2 hPa | - | - | - | - |
| 1777687093 | 11.11° C | 74% | 1012.3 hPa | - | - | - | - |
| 1777686491 | 11.67° C | 73% | 1012.4 hPa | - | - | - | - |
| 1777685890 | 12.22° C | 70% | 1012.4 hPa | - | - | - | - |
| 1777685289 | 12.22° C | 71% | 1012.5 hPa | - | - | - | - |
| 1777684688 | 12.22° C | 71% | 1012.6 hPa | - | - | - | - |
| 1777684089 | 11.11° C | 75% | 1012.8 hPa | - | - | - | - |
| 1777683487 | 11.67° C | 74% | 1012.8 hPa | - | - | - | - |
| 1777682886 | 12.78° C | 72% | 1012.9 hPa | - | - | - | - |
* Rain since midnight (hover to see other rain measurements)
** Current wind speed in m/s (hover to see current wind gust speed)